Time;durP1;ratioP1;P1;durP2;ratioP2;P2;SDS_P1;SDS_P2;PMS_P1;PMS_P2;Temp;Humidity;BMP_temperature;BMP_pressure;BME280_temperature;BME280_humidity;BME280_pressure;Samples;Min_cycle;Max_cycle;Signal;HPM_P1;HPM_P2
2023/07/21 00:01:08;;;;;;;5.57;2.30;;;14.20;99.90;;;;;;5073940;28;20047;-62
2023/07/21 00:03:34;;;;;;;5.32;2.20;;;14.20;99.90;;;;;;5073868;28;20043;-62
2023/07/21 00:06:01;;;;;;;4.57;1.70;;;14.20;99.90;;;;;;5072322;28;20044;-62
2023/07/21 00:08:29;;;;;;;4.90;2.33;;;14.30;99.90;;;;;;5073751;28;20147;-62
2023/07/21 00:10:58;;;;;;;6.57;2.30;;;14.30;99.90;;;;;;5072215;28;20060;-62
2023/07/21 00:13:27;;;;;;;6.35;3.25;;;14.30;99.90;;;;;;5073400;28;20037;-64
2023/07/21 00:15:54;;;;;;;5.10;2.50;;;14.20;99.90;;;;;;5073726;28;20047;-62
2023/07/21 00:18:20;;;;;;;4.43;2.38;;;14.20;99.90;;;;;;5089325;28;20069;-62
2023/07/21 00:20:47;;;;;;;5.65;2.30;;;14.20;99.90;;;;;;5072414;28;20076;-62
2023/07/21 00:23:13;;;;;;;4.47;2.10;;;14.10;99.90;;;;;;5073613;28;20040;-63
2023/07/21 00:25:39;;;;;;;6.05;2.25;;;14.10;99.90;;;;;;5073312;28;20123;-63
2023/07/21 00:28:05;;;;;;;4.47;2.33;;;14.10;99.90;;;;;;5071989;28;20039;-63
2023/07/21 00:30:32;;;;;;;5.13;2.40;;;14.10;99.90;;;;;;5072982;28;20052;-62
2023/07/21 00:32:59;;;;;;;6.25;1.83;;;14.10;99.90;;;;;;5071970;28;20051;-62
2023/07/21 00:35:26;;;;;;;5.53;3.00;;;14.10;99.90;;;;;;5073428;28;20060;-63
2023/07/21 00:37:52;;;;;;;5.20;2.72;;;14.10;99.90;;;;;;5073381;28;20043;-62
2023/07/21 00:40:20;;;;;;;4.82;1.98;;;14.10;99.90;;;;;;5073464;28;20036;-62
2023/07/21 00:42:46;;;;;;;5.10;2.20;;;14.10;99.90;;;;;;5072126;28;20123;-63
2023/07/21 00:45:14;;;;;;;6.35;2.85;;;14.20;99.90;;;;;;5073316;28;20094;-63
2023/07/21 00:47:40;;;;;;;6.68;3.03;;;14.20;99.90;;;;;;5072943;28;20123;-61
2023/07/21 00:50:08;;;;;;;5.07;2.30;;;14.10;99.90;;;;;;5072900;28;20110;-61
2023/07/21 00:52:35;;;;;;;5.30;2.35;;;14.10;99.90;;;;;;5071464;28;20040;-62
2023/07/21 00:55:01;;;;;;;6.30;3.15;;;14.10;99.90;;;;;;5071932;28;20041;-62
2023/07/21 00:57:28;;;;;;;5.32;2.10;;;14.10;99.90;;;;;;5072904;28;20043;-62
2023/07/21 00:59:54;;;;;;;4.97;2.30;;;14.10;99.90;;;;;;5073254;28;20040;-62
2023/07/21 01:02:21;;;;;;;6.80;3.72;;;14.10;99.90;;;;;;5072957;28;20041;-62
2023/07/21 01:04:47;;;;;;;5.03;2.55;;;14.10;99.90;;;;;;5071636;28;20032;-63
2023/07/21 01:07:15;;;;;;;5.93;3.30;;;14.10;99.90;;;;;;5071560;28;20059;-63
2023/07/21 01:09:43;;;;;;;4.85;2.22;;;14.10;99.90;;;;;;5072975;28;20037;-62
2023/07/21 01:12:09;;;;;;;6.57;2.85;;;14.20;99.90;;;;;;5071476;28;20037;-62
2023/07/21 01:14:37;;;;;;;5.60;2.60;;;14.20;99.90;;;;;;5071738;28;20040;-61
2023/07/21 01:17:06;;;;;;;6.40;3.00;;;14.20;99.90;;;;;;5072758;28;20048;-61
2023/07/21 01:19:32;;;;;;;5.60;2.72;;;14.00;99.90;;;;;;5072964;28;20441;-61
2023/07/21 01:22:22;;;;;;;5.55;3.03;;;13.90;99.90;;;;;;5071447;28;20040;-62
2023/07/21 01:24:51;;;;;;;5.90;3.15;;;13.90;99.90;;;;;;5073007;28;20043;-62
2023/07/21 01:27:23;;;;;;;4.75;2.47;;;13.90;99.90;;;;;;5072914;28;20055;-62
2023/07/21 01:29:52;;;;;;;5.75;2.22;;;13.90;99.90;;;;;;5072910;28;20450;-62
2023/07/21 01:32:21;;;;;;;4.97;2.50;;;13.90;99.90;;;;;;5072441;28;20049;-62
2023/07/21 01:34:49;;;;;;;5.78;2.20;;;13.90;99.90;;;;;;5071283;28;20051;-62
2023/07/21 01:37:17;;;;;;;5.95;3.17;;;13.90;99.90;;;;;;5071726;28;20055;-62
2023/07/21 01:39:44;;;;;;;5.60;2.60;;;14.00;99.90;;;;;;5071525;28;20052;-62
2023/07/21 01:42:11;;;;;;;5.72;2.85;;;14.00;99.90;;;;;;5072751;28;20040;-62
2023/07/21 01:44:37;;;;;;;6.55;3.30;;;13.90;99.90;;;;;;5071645;28;20135;-63
2023/07/21 01:47:04;;;;;;;5.15;2.42;;;14.00;99.90;;;;;;5071307;28;20036;-62
2023/07/21 01:49:30;;;;;;;5.57;3.50;;;14.00;99.90;;;;;;5071492;28;20389;-62
2023/07/21 01:51:57;;;;;;;5.55;2.80;;;14.00;99.90;;;;;;5071131;28;20072;-62
2023/07/21 01:54:32;;;;;;;5.85;3.58;;;14.00;99.90;;;;;;5072660;28;20067;-62
2023/07/21 01:57:02;;;;;;;7.32;3.80;;;14.00;99.90;;;;;;5072452;28;20055;-62
2023/07/21 01:59:28;;;;;;;6.88;3.53;;;14.00;99.90;;;;;;5072335;28;20151;-62
2023/07/21 02:01:56;;;;;;;8.80;3.85;;;14.00;99.90;;;;;;5071409;28;20123;-63
2023/07/21 02:04:22;;;;;;;6.47;3.40;;;14.00;99.90;;;;;;5071259;28;20048;-63
2023/07/21 02:06:48;;;;;;;6.65;3.08;;;13.90;99.90;;;;;;5074339;28;20041;-63
2023/07/21 02:09:15;;;;;;;6.00;3.10;;;14.00;99.90;;;;;;5074654;28;20040;-63
2023/07/21 02:11:41;;;;;;;6.50;3.45;;;13.90;99.90;;;;;;5076093;28;20036;-61
2023/07/21 02:14:07;;;;;;;8.45;3.90;;;13.90;99.90;;;;;;5075638;28;20120;-61
2023/07/21 02:16:33;;;;;;;7.22;3.70;;;13.90;99.90;;;;;;5075701;28;20119;-62
2023/07/21 02:18:58;;;;;;;7.30;4.15;;;13.80;99.90;;;;;;5076030;28;20078;-62
2023/07/21 02:21:24;;;;;;;7.22;3.92;;;13.80;99.90;;;;;;5074624;28;20111;-61
2023/07/21 02:23:50;;;;;;;6.72;3.38;;;13.70;99.90;;;;;;5074521;28;20036;-62
2023/07/21 02:26:16;;;;;;;5.32;2.97;;;13.60;99.90;;;;;;5075812;28;20044;-62
2023/07/21 02:28:42;;;;;;;7.03;3.88;;;13.60;99.90;;;;;;5074594;28;20099;-62
2023/07/21 02:31:09;;;;;;;5.72;2.70;;;13.60;99.90;;;;;;5073945;28;20052;-62
2023/07/21 02:33:35;;;;;;;6.25;3.10;;;13.60;99.90;;;;;;5074258;28;20036;-62
2023/07/21 02:36:03;;;;;;;5.88;3.60;;;13.60;99.90;;;;;;5075628;28;20058;-61
2023/07/21 02:38:30;;;;;;;5.80;2.90;;;13.70;99.90;;;;;;5074202;28;20044;-61
2023/07/21 02:41:00;;;;;;;6.72;2.67;;;13.60;99.90;;;;;;5075588;28;20051;-62
2023/07/21 02:43:26;;;;;;;6.38;2.35;;;13.60;99.90;;;;;;5057364;28;20104;-62
2023/07/21 02:45:53;;;;;;;5.80;2.55;;;13.70;99.90;;;;;;5075494;28;20115;-62
2023/07/21 02:48:20;;;;;;;6.03;2.50;;;13.70;99.90;;;;;;5074176;28;20094;-62
2023/07/21 02:50:51;;;;;;;5.90;2.88;;;13.70;99.90;;;;;;5057058;28;20052;-62
2023/07/21 02:53:22;;;;;;;6.43;3.55;;;13.70;99.90;;;;;;5073789;28;20044;-62
2023/07/21 02:55:48;;;;;;;6.35;3.47;;;13.70;99.90;;;;;;5074111;28;20064;-62
2023/07/21 02:58:16;;;;;;;6.57;3.45;;;13.60;99.90;;;;;;5075108;28;20130;-62
2023/07/21 03:00:42;;;;;;;5.78;2.70;;;13.50;99.90;;;;;;5073943;28;20064;-62
2023/07/21 03:03:15;;;;;;;6.65;2.83;;;13.50;99.90;;;;;;5057024;28;20033;-62
2023/07/21 03:05:41;;;;;;;6.25;3.58;;;13.40;99.90;;;;;;5075051;28;20113;-62
2023/07/21 03:08:11;;;;;;;5.53;3.00;;;13.50;99.90;;;;;;5057081;28;20090;-62
2023/07/21 03:10:37;;;;;;;5.10;2.50;;;13.40;99.90;;;;;;5074546;28;20040;-62
2023/07/21 03:13:03;;;;;;;4.95;2.60;;;13.40;99.90;;;;;;5074959;28;20071;-62
2023/07/21 03:15:29;;;;;;;6.85;3.30;;;13.40;99.90;;;;;;5074230;28;20072;-62
2023/07/21 03:17:55;;;;;;;5.53;2.50;;;13.50;99.90;;;;;;5074745;28;20397;-62
2023/07/21 03:20:20;;;;;;;5.03;2.45;;;13.50;99.90;;;;;;5073581;28;20124;-62
2023/07/21 03:22:46;;;;;;;6.82;3.00;;;13.50;99.90;;;;;;5074747;28;20121;-62
2023/07/21 03:25:13;;;;;;;5.97;3.05;;;13.50;99.90;;;;;;5073462;28;20033;-62
2023/07/21 03:27:39;;;;;;;6.63;3.42;;;13.60;99.90;;;;;;5074629;28;20044;-62
2023/07/21 03:30:14;;;;;;;5.88;2.78;;;13.50;99.90;;;;;;5072853;28;20485;-62
2023/07/21 03:32:40;;;;;;;6.45;2.63;;;13.60;99.90;;;;;;5074227;28;20053;-62
2023/07/21 03:35:06;;;;;;;6.13;2.88;;;13.50;99.90;;;;;;5074570;28;20111;-62
2023/07/21 03:37:36;;;;;;;5.65;2.60;;;13.50;99.90;;;;;;5056200;28;20047;-62
2023/07/21 03:40:06;;;;;;;4.90;2.50;;;13.40;99.90;;;;;;5074401;28;20526;-62
2023/07/21 03:42:33;;;;;;;7.18;2.58;;;13.40;99.90;;;;;;5074255;28;20040;-62
2023/07/21 03:45:04;;;;;;;5.78;2.50;;;13.40;99.90;;;;;;5073081;28;20484;-62
2023/07/21 03:47:34;;;;;;;5.57;2.47;;;13.40;99.90;;;;;;5073972;28;20059;-62
2023/07/21 03:50:00;;;;;;;5.30;2.50;;;13.40;99.90;;;;;;5072828;28;20045;-62
2023/07/21 03:52:27;;;;;;;6.05;3.20;;;13.40;99.90;;;;;;5073750;28;20051;-62
2023/07/21 03:54:53;;;;;;;7.57;3.10;;;13.50;99.90;;;;;;5074089;28;20040;-62
2023/07/21 03:57:20;;;;;;;6.00;3.60;;;13.50;99.90;;;;;;5074035;28;20102;-62
2023/07/21 03:59:49;;;;;;;6.82;3.50;;;13.50;99.90;;;;;;5073797;28;20557;-62
2023/07/21 04:02:18;;;;;;;5.75;3.22;;;13.50;99.90;;;;;;5073596;28;20051;-62
2023/07/21 04:04:48;;;;;;;7.80;3.72;;;13.50;99.90;;;;;;5073921;28;20036;-62
2023/07/21 04:07:14;;;;;;;8.50;5.60;;;13.40;99.90;;;;;;5073877;28;20480;-62
2023/07/21 04:09:40;;;;;;;7.25;3.70;;;13.30;99.90;;;;;;5073474;28;20115;-62
2023/07/21 04:12:09;;;;;;;6.10;3.33;;;13.30;99.90;;;;;;5073787;28;20120;-63
2023/07/21 04:14:35;;;;;;;7.55;3.50;;;13.30;99.90;;;;;;5073512;28;20047;-62
2023/07/21 04:17:01;;;;;;;6.35;3.60;;;13.30;99.90;;;;;;5073445;28;20032;-62
2023/07/21 04:19:26;;;;;;;6.20;3.40;;;13.30;99.90;;;;;;5073750;28;20033;-62
2023/07/21 04:21:53;;;;;;;6.93;3.10;;;13.30;99.90;;;;;;5073387;28;20037;-62
2023/07/21 04:24:19;;;;;;;5.85;3.40;;;13.30;99.90;;;;;;5073571;28;20045;-61
2023/07/21 04:26:45;;;;;;;7.40;3.35;;;13.30;99.90;;;;;;5073615;28;20123;-62
2023/07/21 04:29:11;;;;;;;7.03;3.40;;;13.40;99.90;;;;;;5072503;28;20526;-62
2023/07/21 04:31:37;;;;;;;7.00;3.88;;;13.40;99.90;;;;;;5055036;28;20052;-62
2023/07/21 04:34:03;;;;;;;6.13;3.53;;;13.50;99.90;;;;;;5073546;28;20476;-62
2023/07/21 04:36:28;;;;;;;5.95;3.50;;;13.50;99.90;;;;;;5073435;28;20037;-62
2023/07/21 04:38:56;;;;;;;9.40;4.55;;;13.50;99.90;;;;;;5073079;28;20128;-62
2023/07/21 04:41:24;;;;;;;7.35;4.40;;;13.40;99.90;;;;;;5073373;28;20400;-62
2023/07/21 04:43:50;;;;;;;7.13;4.30;;;13.40;99.90;;;;;;5073362;28;20052;-62
2023/07/21 04:46:15;;;;;;;8.88;4.60;;;13.40;99.90;;;;;;5055085;28;20102;-62
2023/07/21 04:48:43;;;;;;;7.53;4.28;;;13.40;99.90;;;;;;5071799;28;20481;-62
2023/07/21 04:51:09;;;;;;;6.90;4.40;;;13.50;99.90;;;;;;5071977;28;20044;-62
2023/07/21 04:53:34;;;;;;;8.07;4.50;;;13.50;99.90;;;;;;5072017;28;20066;-62
2023/07/21 04:56:00;;;;;;;8.43;4.68;;;13.50;99.90;;;;;;5073211;28;20036;-62
2023/07/21 04:58:26;;;;;;;6.55;4.15;;;13.50;99.90;;;;;;5071643;28;20032;-62
2023/07/21 05:00:54;;;;;;;8.65;4.40;;;13.50;99.90;;;;;;5055132;28;20488;-62
2023/07/21 05:03:20;;;;;;;7.35;4.28;;;13.50;99.90;;;;;;5073059;28;20103;-62
2023/07/21 05:05:48;;;;;;;8.18;4.70;;;13.60;99.90;;;;;;5073037;28;20032;-62
2023/07/21 05:08:14;;;;;;;7.60;4.50;;;13.70;99.90;;;;;;5072183;28;20045;-61
2023/07/21 05:10:39;;;;;;;7.20;4.20;;;13.90;99.90;;;;;;5072969;28;20052;-62
2023/07/21 05:13:06;;;;;;;6.57;3.90;;;14.20;99.90;;;;;;5071811;28;20519;-62
2023/07/21 05:15:38;;;;;;;6.20;3.60;;;14.50;99.90;;;;;;5071772;28;20485;-63
2023/07/21 05:18:04;;;;;;;7.55;4.00;;;14.80;99.90;;;;;;5073126;28;20036;-61
2023/07/21 05:20:29;;;;;;;6.63;3.90;;;15.50;99.90;;;;;;5072916;28;20049;-62
2023/07/21 05:22:55;;;;;;;7.20;3.50;;;16.10;99.90;;;;;;5071465;28;20067;-61
2023/07/21 05:25:21;;;;;;;5.68;3.05;;;16.70;99.90;;;;;;5072545;28;20040;-62
2023/07/21 05:27:48;;;;;;;5.55;2.75;;;17.10;99.90;;;;;;5072444;28;20087;-62
2023/07/21 05:30:14;;;;;;;7.80;2.60;;;17.50;99.90;;;;;;5072271;28;20049;-62
2023/07/21 05:32:41;;;;;;;5.82;3.05;;;17.70;99.90;;;;;;5071649;28;20106;-62
2023/07/21 05:35:10;;;;;;;6.35;2.75;;;17.80;99.90;;;;;;5071660;28;20036;-64
2023/07/21 05:37:36;;;;;;;5.88;2.65;;;17.80;99.90;;;;;;5071159;28;20056;-62
2023/07/21 05:40:03;;;;;;;5.57;2.38;;;17.80;99.90;;;;;;5075190;28;20055;-62
2023/07/21 05:42:29;;;;;;;5.68;2.47;;;18.00;99.90;;;;;;5075101;28;20047;-62
2023/07/21 05:44:55;;;;;;;5.75;2.30;;;18.00;99.90;;;;;;5075341;28;20057;-62
2023/07/21 05:47:22;;;;;;;6.40;2.38;;;18.50;99.90;;;;;;5076431;28;20123;-64
2023/07/21 05:49:48;;;;;;;6.22;2.10;;;19.20;99.90;;;;;;5076089;28;20119;-63
2023/07/21 05:52:13;;;;;;;5.05;1.85;;;19.60;99.90;;;;;;5058248;28;20143;-62
2023/07/21 05:54:40;;;;;;;6.00;1.88;;;20.10;99.90;;;;;;5076420;28;20052;-63
2023/07/21 05:57:06;;;;;;;5.03;1.90;;;20.40;99.90;;;;;;5076380;28;20072;-62
2023/07/21 05:59:32;;;;;;;4.88;1.70;;;20.60;99.90;;;;;;5076305;28;20115;-64
2023/07/21 06:01:59;;;;;;;4.60;1.80;;;21.00;99.90;;;;;;5075891;28;20183;-63
2023/07/21 06:04:25;;;;;;;4.40;1.60;;;20.90;99.90;;;;;;5075959;28;20414;-62
2023/07/21 06:06:51;;;;;;;5.35;1.50;;;21.10;99.90;;;;;;5076102;28;20150;-65
2023/07/21 06:09:17;;;;;;;5.20;1.60;;;21.20;99.90;;;;;;5074721;28;20072;-62
2023/07/21 06:11:43;;;;;;;4.03;1.38;;;21.80;99.90;;;;;;5074586;28;20085;-62
2023/07/21 06:14:08;;;;;;;5.13;1.48;;;22.30;99.90;;;;;;5074722;28;20070;-62
2023/07/21 06:16:34;;;;;;;6.47;1.35;;;22.60;99.00;;;;;;5076031;28;20039;-62
2023/07/21 06:19:00;;;;;;;3.85;1.20;;;23.10;97.30;;;;;;5075993;28;20072;-62
2023/07/21 06:21:26;;;;;;;4.78;1.30;;;23.10;94.80;;;;;;5058087;28;20048;-62
2023/07/21 06:23:53;;;;;;;4.07;1.20;;;23.50;94.90;;;;;;5075847;28;20044;-62
2023/07/21 06:26:19;;;;;;;4.00;1.30;;;23.50;94.50;;;;;;5075902;28;20036;-62
2023/07/21 06:28:45;;;;;;;5.07;1.30;;;23.90;93.10;;;;;;5074584;28;20053;-62
2023/07/21 06:31:11;;;;;;;4.38;1.35;;;23.50;91.70;;;;;;5075458;28;20150;-62
2023/07/21 06:33:38;;;;;;;4.35;1.30;;;23.60;93.10;;;;;;5057929;28;20550;-62
2023/07/21 06:36:07;;;;;;;4.25;1.30;;;23.80;92.10;;;;;;5075455;28;20044;-62
2023/07/21 06:38:33;;;;;;;3.92;1.50;;;23.80;91.40;;;;;;5057755;28;20126;-62
2023/07/21 06:41:04;;;;;;;5.10;1.63;;;24.00;91.60;;;;;;5074091;28;20040;-62
2023/07/21 06:43:31;;;;;;;4.38;1.60;;;24.00;92.40;;;;;;5075244;28;20036;-63
2023/07/21 06:45:58;;;;;;;5.53;1.83;;;23.90;92.10;;;;;;5075157;28;20036;-62
2023/07/21 06:48:24;;;;;;;6.70;1.58;;;23.70;91.50;;;;;;5074179;28;20401;-62
2023/07/21 06:50:50;;;;;;;6.03;1.77;;;23.10;92.50;;;;;;5072995;28;20079;-62
2023/07/21 06:53:19;;;;;;;5.22;1.80;;;23.20;93.20;;;;;;5075392;28;20045;-62
2023/07/21 06:55:49;;;;;;;4.05;1.52;;;22.70;90.80;;;;;;5075034;28;20036;-62
2023/07/21 06:58:15;;;;;;;6.57;1.60;;;22.20;92.10;;;;;;5075202;28;20037;-62
2023/07/21 07:00:41;;;;;;;4.30;1.50;;;22.50;92.10;;;;;;5074852;28;20036;-63
2023/07/21 07:03:07;;;;;;;5.82;1.98;;;23.00;93.00;;;;;;5074826;28;20040;-62
2023/07/21 07:05:32;;;;;;;6.70;2.15;;;23.90;92.10;;;;;;5073560;28;20043;-62
2023/07/21 07:07:58;;;;;;;5.20;2.00;;;23.90;91.70;;;;;;5073801;28;20043;-63
2023/07/21 07:10:24;;;;;;;5.22;2.15;;;24.60;91.40;;;;;;5074530;28;20039;-62
2023/07/21 07:12:50;;;;;;;4.78;1.65;;;24.10;90.00;;;;;;5074697;28;20045;-63
2023/07/21 07:15:16;;;;;;;5.20;1.63;;;23.90;91.10;;;;;;5073558;28;20037;-62
2023/07/21 07:17:43;;;;;;;4.10;1.50;;;23.70;91.70;;;;;;5074839;28;20439;-62
2023/07/21 07:20:11;;;;;;;6.90;1.58;;;24.30;91.50;;;;;;5074419;28;20079;-62
2023/07/21 07:22:38;;;;;;;3.92;1.48;;;24.60;91.10;;;;;;5074491;28;20093;-62
2023/07/21 07:25:04;;;;;;;5.78;1.40;;;24.90;90.00;;;;;;5073164;28;20044;-63
2023/07/21 07:27:30;;;;;;;3.55;1.23;;;24.90;88.40;;;;;;5073006;28;20123;-62
2023/07/21 07:29:56;;;;;;;4.60;1.30;;;24.80;86.40;;;;;;5073262;28;20127;-62
2023/07/21 07:32:22;;;;;;;4.05;1.27;;;25.10;86.30;;;;;;5073969;28;20044;-62
2023/07/21 07:34:48;;;;;;;3.38;1.20;;;25.60;86.20;;;;;;5073223;28;20036;-63
2023/07/21 07:37:15;;;;;;;4.47;1.30;;;26.00;83.70;;;;;;5072908;28;20044;-62
2023/07/21 07:39:41;;;;;;;3.85;1.20;;;26.00;79.50;;;;;;5074084;28;20105;-62
2023/07/21 07:42:07;;;;;;;4.43;1.33;;;25.50;80.00;;;;;;5074293;28;20119;-61
2023/07/21 07:44:33;;;;;;;4.38;1.35;;;25.20;81.90;;;;;;5072992;28;20047;-62
2023/07/21 07:46:59;;;;;;;3.25;1.10;;;24.90;81.50;;;;;;5073409;28;20119;-62
2023/07/21 07:49:25;;;;;;;6.90;1.48;;;24.70;82.40;;;;;;5074265;28;20041;-61
2023/07/21 07:51:51;;;;;;;5.15;1.30;;;24.80;83.10;;;;;;5073847;28;20106;-60
2023/07/21 07:54:16;;;;;;;3.20;1.20;;;24.80;82.00;;;;;;5072686;28;20044;-62
2023/07/21 07:56:42;;;;;;;3.97;1.30;;;24.50;81.50;;;;;;5074054;28;20036;-61
2023/07/21 07:59:08;;;;;;;4.72;1.30;;;24.40;81.00;;;;;;5072549;28;20504;-63
2023/07/21 08:01:34;;;;;;;4.60;1.20;;;24.10;80.70;;;;;;5072417;28;20521;-61
2023/07/21 08:04:00;;;;;;;3.92;1.00;;;23.50;80.30;;;;;;5074077;28;20123;-60
2023/07/21 08:06:25;;;;;;;3.00;1.00;;;23.10;80.70;;;;;;5073619;28;20465;-63
2023/07/21 08:08:51;;;;;;;2.85;1.00;;;22.70;81.40;;;;;;5073595;28;20032;-61
2023/07/21 08:11:17;;;;;;;2.60;1.05;;;22.40;82.40;;;;;;5073479;28;20041;-62
2023/07/21 08:13:44;;;;;;;3.55;1.00;;;22.40;83.90;;;;;;5073493;28;20038;-62
2023/07/21 08:16:12;;;;;;;3.60;1.10;;;22.20;82.50;;;;;;5073407;28;20119;-62
2023/07/21 08:18:38;;;;;;;3.55;1.10;;;22.50;86.10;;;;;;5073769;28;20055;-61
2023/07/21 08:21:18;;;;;;;2.45;0.90;;;22.30;81.60;;;;;;5072481;28;20071;-63
2023/07/21 08:23:45;;;;;;;2.92;1.20;;;22.60;79.20;;;;;;5073249;28;20044;-61
2023/07/21 08:26:11;;;;;;;2.40;1.00;;;23.00;82.90;;;;;;5072414;28;20126;-61
2023/07/21 08:28:36;;;;;;;3.03;1.00;;;23.30;83.80;;;;;;5073091;28;20040;-63
2023/07/21 08:31:02;;;;;;;3.35;1.10;;;23.80;82.00;;;;;;5072982;28;20057;-60
2023/07/21 08:33:29;;;;;;;3.67;1.13;;;24.00;80.80;;;;;;5073554;28;20400;-61
2023/07/21 08:35:55;;;;;;;4.15;1.00;;;24.00;77.00;;;;;;5072337;28;20037;-61
2023/07/21 08:38:21;;;;;;;3.85;1.10;;;24.10;79.10;;;;;;5073475;28;20040;-61
2023/07/21 08:40:50;;;;;;;4.60;1.17;;;24.30;78.40;;;;;;5072293;28;20041;-61
2023/07/21 08:43:16;;;;;;;3.08;1.10;;;24.40;77.20;;;;;;5073377;28;20128;-61
2023/07/21 08:45:44;;;;;;;3.33;1.10;;;24.40;80.80;;;;;;5073419;28;20091;-62
2023/07/21 08:48:10;;;;;;;3.97;1.20;;;24.40;76.30;;;;;;5073089;28;20045;-61
2023/07/21 08:50:40;;;;;;;2.95;1.10;;;24.20;77.70;;;;;;5073284;28;20036;-61
2023/07/21 08:53:06;;;;;;;2.38;0.90;;;24.40;79.50;;;;;;5073377;28;20032;-62
2023/07/21 08:55:33;;;;;;;2.80;1.25;;;24.40;80.40;;;;;;5055057;28;20472;-62
2023/07/21 08:58:00;;;;;;;3.38;1.05;;;24.60;79.40;;;;;;5071937;28;20043;-61
2023/07/21 09:00:27;;;;;;;3.55;1.10;;;24.70;78.40;;;;;;5073173;28;20041;-61
2023/07/21 09:03:02;;;;;;;4.30;1.20;;;25.10;76.20;;;;;;5073275;28;20511;-61
2023/07/21 09:05:29;;;;;;;3.15;1.10;;;25.00;76.90;;;;;;5072883;28;20040;-61
2023/07/21 09:07:55;;;;;;;3.20;1.10;;;25.00;76.40;;;;;;5055182;28;20420;-62
2023/07/21 09:10:32;;;;;;;2.80;1.10;;;24.90;77.50;;;;;;5072737;28;20045;-61
2023/07/21 09:12:59;;;;;;;4.22;1.20;;;24.90;78.50;;;;;;5072849;28;20037;-62
2023/07/21 09:15:25;;;;;;;3.65;1.10;;;25.00;77.90;;;;;;5074725;28;20039;-62
2023/07/21 09:17:51;;;;;;;3.78;1.20;;;25.20;76.70;;;;;;5075958;28;20116;-61
2023/07/21 09:20:18;;;;;;;3.35;1.10;;;25.30;76.70;;;;;;5075621;28;20044;-61
2023/07/21 09:22:48;;;;;;;2.78;1.05;;;25.30;75.00;;;;;;5059033;28;20044;-62
2023/07/21 09:25:21;;;;;;;4.13;1.30;;;25.40;74.20;;;;;;5075454;28;20090;-62
2023/07/21 09:27:55;;;;;;;3.92;1.40;;;25.30;75.00;;;;;;5076957;28;20481;-62
2023/07/21 09:30:21;;;;;;;4.53;1.30;;;25.10;75.80;;;;;;5058771;28;20045;-62
2023/07/21 09:32:47;;;;;;;4.00;1.20;;;25.00;78.50;;;;;;5075196;28;20053;-62
2023/07/21 09:35:13;;;;;;;3.83;1.20;;;24.90;78.20;;;;;;5076725;28;20063;-62
2023/07/21 09:37:39;;;;;;;4.53;1.30;;;25.00;78.70;;;;;;5076766;28;20456;-61
2023/07/21 09:40:10;;;;;;;3.72;1.30;;;25.20;79.20;;;;;;5076450;28;20488;-62
2023/07/21 09:42:38;;;;;;;2.90;1.20;;;25.20;78.20;;;;;;5076354;28;20045;-62
2023/07/21 09:45:04;;;;;;;3.50;1.10;;;25.20;77.40;;;;;;5076264;28;20047;-62
2023/07/21 09:47:30;;;;;;;3.25;1.00;;;25.30;76.70;;;;;;5076081;28;20040;-63
2023/07/21 09:50:05;;;;;;;3.80;1.10;;;25.50;76.70;;;;;;5096484;28;20100;-62
2023/07/21 09:52:39;;;;;;;3.67;1.30;;;25.60;75.00;;;;;;5096746;28;20035;-63
2023/07/21 09:55:09;;;;;;;3.03;1.15;;;25.60;70.90;;;;;;5096704;28;20105;-62
2023/07/21 09:57:46;;;;;;;2.70;1.10;;;25.80;73.70;;;;;;5078401;28;20561;-62
2023/07/21 10:00:17;;;;;;;3.42;1.23;;;25.90;73.60;;;;;;5078492;28;20552;-62
2023/07/21 10:02:45;;;;;;;3.47;1.08;;;26.10;73.20;;;;;;5096412;28;20392;-62
2023/07/21 10:05:11;;;;;;;3.28;1.10;;;26.10;73.20;;;;;;5096170;28;20075;-62
2023/07/21 10:07:39;;;;;;;3.92;1.10;;;26.20;73.00;;;;;;5096303;28;20036;-62
2023/07/21 10:10:07;;;;;;;3.55;1.27;;;26.30;73.60;;;;;;5078214;28;20109;-61
2023/07/21 10:12:52;;;;;;;3.45;1.15;;;26.10;71.20;;;;;;5078174;28;20484;-63
2023/07/21 10:15:29;;;;;;;3.42;1.20;;;25.90;71.10;;;;;;5095961;28;20043;-65
2023/07/21 10:17:58;;;;;;;2.30;1.00;;;25.70;70.30;;;;;;5077853;28;20043;-60
2023/07/21 10:20:52;;;;;;;4.90;1.40;;;25.60;70.90;;;;;;5077979;28;20503;-61
2023/07/21 10:23:24;;;;;;;2.92;1.20;;;25.40;70.00;;;;;;5096230;28;20500;-65
2023/07/21 10:26:09;;;;;;;2.95;1.15;;;25.20;71.60;;;;;;5094589;28;20044;-63
2023/07/21 10:28:39;;;;;;;3.67;1.20;;;25.00;72.10;;;;;;5095993;28;20043;-65
2023/07/21 10:31:32;;;;;;;3.25;1.30;;;25.20;74.60;;;;;;5077455;28;20492;-63
2023/07/21 10:34:08;;;;;;;3.70;1.30;;;25.40;74.50;;;;;;5095917;28;20147;-62
2023/07/21 10:37:09;;;;;;;2.92;1.10;;;25.70;74.90;;;;;;5095417;28;20115;-66
2023/07/21 10:39:38;;;;;;;5.03;1.20;;;26.00;72.20;;;;;;5036811;28;20087;-67
2023/07/21 10:42:06;;;;;;;2.90;1.20;;;25.90;71.40;;;;;;5087737;28;20087;-63
2023/07/21 10:44:40;;;;;;;4.07;1.30;;;25.70;72.20;;;;;;5077506;28;20127;-64
2023/07/21 10:47:12;;;;;;;4.40;1.40;;;25.60;71.80;;;;;;5095632;28;20036;-63
2023/07/21 10:49:38;;;;;;;3.92;1.13;;;25.40;71.70;;;;;;5095611;28;20036;-62
2023/07/21 10:52:04;;;;;;;3.45;1.20;;;25.40;72.50;;;;;;5095612;28;20043;-62
2023/07/21 10:54:30;;;;;;;4.43;1.33;;;25.30;73.10;;;;;;5077039;28;20044;-63
2023/07/21 10:56:58;;;;;;;2.78;1.20;;;25.10;72.40;;;;;;5060899;28;20043;-62
2023/07/21 10:59:24;;;;;;;4.60;1.30;;;25.00;72.50;;;;;;5077310;28;20040;-62
2023/07/21 11:01:53;;;;;;;4.05;1.40;;;25.00;73.10;;;;;;5077203;28;20093;-62
2023/07/21 11:04:24;;;;;;;5.03;1.60;;;25.40;75.80;;;;;;5043690;28;20487;-63
2023/07/21 11:06:57;;;;;;;4.95;1.55;;;25.60;75.10;;;;;;5094970;28;20050;-62
2023/07/21 11:09:23;;;;;;;5.88;1.58;;;25.80;73.30;;;;;;5095321;28;20483;-62
2023/07/21 11:11:56;;;;;;;4.35;1.50;;;25.80;72.20;;;;;;5095120;28;20495;-62
2023/07/21 11:14:24;;;;;;;3.20;1.50;;;25.70;71.30;;;;;;5077168;28;20032;-62
2023/07/21 11:17:02;;;;;;;4.47;1.73;;;25.50;73.30;;;;;;5076793;28;20043;-61
2023/07/21 11:19:33;;;;;;;3.92;1.70;;;25.20;74.40;;;;;;5094851;28;20033;-62
2023/07/21 11:21:59;;;;;;;3.42;1.40;;;25.10;74.50;;;;;;5094844;28;20040;-62
2023/07/21 11:24:28;;;;;;;6.57;1.75;;;25.20;75.60;;;;;;5076930;28;20036;-62
2023/07/21 11:26:56;;;;;;;3.97;1.40;;;25.20;72.40;;;;;;5094969;28;20038;-62
2023/07/21 11:29:25;;;;;;;5.93;1.50;;;25.00;73.30;;;;;;5094533;28;20044;-62
2023/07/21 11:31:51;;;;;;;3.90;1.40;;;24.80;71.80;;;;;;5094327;28;20113;-62
2023/07/21 11:34:28;;;;;;;3.70;1.48;;;24.60;70.90;;;;;;5094658;28;20476;-62
2023/07/21 11:36:59;;;;;;;3.90;1.42;;;24.60;72.80;;;;;;5076476;28;20028;-63
2023/07/21 11:39:29;;;;;;;4.67;1.50;;;24.80;74.30;;;;;;5094485;28;20051;-62
2023/07/21 11:41:56;;;;;;;4.07;1.75;;;25.10;73.50;;;;;;5094344;28;20749;-62
2023/07/21 11:44:30;;;;;;;4.38;1.63;;;25.10;72.00;;;;;;5094263;28;20044;-62
2023/07/21 11:47:05;;;;;;;4.28;1.50;;;25.00;71.40;;;;;;5076721;28;20048;-62
2023/07/21 11:49:39;;;;;;;4.70;1.65;;;24.90;72.60;;;;;;5094266;28;20040;-62
2023/07/21 11:52:05;;;;;;;3.88;1.40;;;24.80;73.10;;;;;;5094113;28;20065;-62
2023/07/21 11:54:43;;;;;;;4.30;1.60;;;24.80;72.80;;;;;;5094482;28;20047;-62
2023/07/21 11:57:10;;;;;;;4.15;1.45;;;24.40;72.90;;;;;;5094319;28;20063;-62
2023/07/21 11:59:38;;;;;;;4.40;1.50;;;24.10;74.00;;;;;;5094351;28;20082;-62
2023/07/21 12:02:06;;;;;;;4.38;1.58;;;23.90;73.00;;;;;;5076109;28;20072;-62
2023/07/21 12:04:33;;;;;;;3.88;1.65;;;23.70;74.80;;;;;;5094210;28;20036;-62
2023/07/21 12:07:00;;;;;;;4.45;1.48;;;23.60;74.00;;;;;;5094119;28;20480;-62
2023/07/21 12:09:26;;;;;;;3.60;1.50;;;23.60;74.20;;;;;;5094114;28;20044;-62
2023/07/21 12:11:54;;;;;;;4.05;1.40;;;23.60;75.30;;;;;;5094012;28;20484;-62
2023/07/21 12:14:20;;;;;;;4.50;1.65;;;23.60;73.50;;;;;;5075917;28;20058;-61
2023/07/21 12:16:45;;;;;;;5.55;1.63;;;23.50;73.70;;;;;;5093632;28;20032;-62
2023/07/21 12:19:12;;;;;;;4.07;1.60;;;23.40;74.70;;;;;;5093983;28;20388;-62
2023/07/21 12:21:37;;;;;;;4.55;1.63;;;23.50;75.80;;;;;;5093724;28;20046;-62
2023/07/21 12:24:03;;;;;;;4.30;1.52;;;23.70;77.40;;;;;;5075377;28;20122;-62
2023/07/21 12:26:29;;;;;;;4.05;1.67;;;23.90;76.60;;;;;;5093925;28;20054;-62
2023/07/21 12:28:55;;;;;;;3.92;1.40;;;24.10;77.10;;;;;;5058753;28;20047;-61
2023/07/21 12:31:21;;;;;;;5.05;1.75;;;24.30;77.20;;;;;;5093429;28;20504;-63
2023/07/21 12:33:48;;;;;;;3.95;1.70;;;24.20;74.60;;;;;;5075451;28;20044;-61
2023/07/21 12:36:15;;;;;;;4.38;1.90;;;24.30;75.70;;;;;;5093423;28;20042;-63
2023/07/21 12:38:42;;;;;;;4.60;1.83;;;24.30;76.20;;;;;;5075186;28;20051;-62
2023/07/21 12:41:08;;;;;;;5.07;1.52;;;24.50;76.60;;;;;;5093646;28;20048;-61
2023/07/21 12:43:36;;;;;;;5.00;1.65;;;24.70;76.10;;;;;;5075246;28;20044;-62
2023/07/21 12:46:04;;;;;;;5.45;1.80;;;25.00;75.20;;;;;;5093506;28;20042;-62
2023/07/21 12:48:31;;;;;;;4.82;1.83;;;24.90;73.10;;;;;;5092952;28;20035;-62
2023/07/21 12:51:01;;;;;;;4.65;1.80;;;24.80;73.70;;;;;;5093447;28;20093;-62